sensor_id;sensor_type;location;lat;lon;timestamp;P1;durP1;ratioP1;P2;durP2;ratioP2
41875;SDS011;27555;50.808;4.402;2023-10-31T00:01:27;17.83;;;8.50;;
41875;SDS011;27555;50.808;4.402;2023-10-31T00:03:52;16.42;;;9.52;;
41875;SDS011;27555;50.808;4.402;2023-10-31T00:06:18;13.60;;;8.57;;
41875;SDS011;27555;50.808;4.402;2023-10-31T00:08:43;16.65;;;7.70;;
41875;SDS011;27555;50.808;4.402;2023-10-31T00:11:09;16.63;;;8.98;;
41875;SDS011;27555;50.808;4.402;2023-10-31T00:13:35;14.18;;;8.48;;
41875;SDS011;27555;50.808;4.402;2023-10-31T00:16:00;13.98;;;7.45;;
41875;SDS011;27555;50.808;4.402;2023-10-31T00:18:26;11.68;;;6.80;;
41875;SDS011;27555;50.808;4.402;2023-10-31T00:20:51;11.75;;;6.57;;
41875;SDS011;27555;50.808;4.402;2023-10-31T00:23:17;14.15;;;7.20;;
41875;SDS011;27555;50.808;4.402;2023-10-31T00:25:43;13.65;;;6.05;;
41875;SDS011;27555;50.808;4.402;2023-10-31T00:28:08;13.25;;;6.28;;
41875;SDS011;27555;50.808;4.402;2023-10-31T00:30:34;11.10;;;6.38;;
41875;SDS011;27555;50.808;4.402;2023-10-31T00:32:59;11.27;;;5.93;;
41875;SDS011;27555;50.808;4.402;2023-10-31T00:35:25;8.70;;;5.63;;
41875;SDS011;27555;50.808;4.402;2023-10-31T00:37:50;10.45;;;5.50;;
41875;SDS011;27555;50.808;4.402;2023-10-31T00:40:16;8.98;;;5.30;;
41875;SDS011;27555;50.808;4.402;2023-10-31T00:42:42;11.40;;;5.85;;
41875;SDS011;27555;50.808;4.402;2023-10-31T00:45:08;15.05;;;5.35;;
41875;SDS011;27555;50.808;4.402;2023-10-31T00:47:34;10.68;;;5.30;;
41875;SDS011;27555;50.808;4.402;2023-10-31T00:50:00;8.00;;;4.75;;
41875;SDS011;27555;50.808;4.402;2023-10-31T00:52:26;14.50;;;4.70;;
41875;SDS011;27555;50.808;4.402;2023-10-31T00:54:52;10.65;;;4.45;;
41875;SDS011;27555;50.808;4.402;2023-10-31T00:57:17;8.05;;;4.82;;
41875;SDS011;27555;50.808;4.402;2023-10-31T00:59:43;9.80;;;4.25;;
41875;SDS011;27555;50.808;4.402;2023-10-31T01:02:08;10.43;;;4.20;;
41875;SDS011;27555;50.808;4.402;2023-10-31T01:04:35;9.20;;;4.53;;
41875;SDS011;27555;50.808;4.402;2023-10-31T01:07:01;9.68;;;4.55;;
41875;SDS011;27555;50.808;4.402;2023-10-31T01:09:26;8.27;;;4.82;;
41875;SDS011;27555;50.808;4.402;2023-10-31T01:11:52;11.35;;;4.45;;
41875;SDS011;27555;50.808;4.402;2023-10-31T01:14:19;6.47;;;4.43;;
41875;SDS011;27555;50.808;4.402;2023-10-31T01:16:44;10.23;;;4.88;;
41875;SDS011;27555;50.808;4.402;2023-10-31T01:19:10;8.05;;;4.35;;
41875;SDS011;27555;50.808;4.402;2023-10-31T01:21:35;9.50;;;5.00;;
41875;SDS011;27555;50.808;4.402;2023-10-31T01:24:01;8.60;;;4.70;;
41875;SDS011;27555;50.808;4.402;2023-10-31T01:26:26;12.45;;;5.45;;
41875;SDS011;27555;50.808;4.402;2023-10-31T01:28:52;14.68;;;5.22;;
41875;SDS011;27555;50.808;4.402;2023-10-31T01:31:18;8.02;;;4.40;;
41875;SDS011;27555;50.808;4.402;2023-10-31T01:33:43;8.40;;;4.60;;
41875;SDS011;27555;50.808;4.402;2023-10-31T01:36:10;8.40;;;4.78;;
41875;SDS011;27555;50.808;4.402;2023-10-31T01:38:37;8.35;;;4.25;;
41875;SDS011;27555;50.808;4.402;2023-10-31T01:41:03;7.10;;;4.10;;
41875;SDS011;27555;50.808;4.402;2023-10-31T01:43:32;7.40;;;4.25;;
41875;SDS011;27555;50.808;4.402;2023-10-31T01:45:59;14.40;;;4.50;;
41875;SDS011;27555;50.808;4.402;2023-10-31T01:48:26;6.53;;;4.45;;
41875;SDS011;27555;50.808;4.402;2023-10-31T01:50:53;7.40;;;4.70;;
41875;SDS011;27555;50.808;4.402;2023-10-31T01:53:19;6.30;;;4.38;;
41875;SDS011;27555;50.808;4.402;2023-10-31T01:55:45;8.73;;;5.40;;
41875;SDS011;27555;50.808;4.402;2023-10-31T01:58:12;9.77;;;5.00;;
41875;SDS011;27555;50.808;4.402;2023-10-31T02:00:41;8.57;;;5.05;;
41875;SDS011;27555;50.808;4.402;2023-10-31T02:03:08;7.55;;;4.72;;
41875;SDS011;27555;50.808;4.402;2023-10-31T02:05:33;6.82;;;4.10;;
41875;SDS011;27555;50.808;4.402;2023-10-31T02:08:00;8.43;;;4.40;;
41875;SDS011;27555;50.808;4.402;2023-10-31T02:10:26;8.02;;;4.32;;
41875;SDS011;27555;50.808;4.402;2023-10-31T02:12:53;6.45;;;3.50;;
41875;SDS011;27555;50.808;4.402;2023-10-31T02:15:19;5.00;;;3.58;;
41875;SDS011;27555;50.808;4.402;2023-10-31T02:17:44;5.95;;;4.13;;
41875;SDS011;27555;50.808;4.402;2023-10-31T02:20:10;6.03;;;4.15;;
41875;SDS011;27555;50.808;4.402;2023-10-31T02:22:36;6.15;;;3.70;;
41875;SDS011;27555;50.808;4.402;2023-10-31T02:25:01;6.88;;;4.38;;
41875;SDS011;27555;50.808;4.402;2023-10-31T02:27:27;6.68;;;4.25;;
41875;SDS011;27555;50.808;4.402;2023-10-31T02:29:52;5.20;;;4.32;;
41875;SDS011;27555;50.808;4.402;2023-10-31T02:32:18;8.75;;;3.95;;
41875;SDS011;27555;50.808;4.402;2023-10-31T02:34:44;6.22;;;3.92;;
41875;SDS011;27555;50.808;4.402;2023-10-31T02:37:10;4.55;;;3.50;;
41875;SDS011;27555;50.808;4.402;2023-10-31T02:39:36;4.40;;;3.75;;
41875;SDS011;27555;50.808;4.402;2023-10-31T02:42:02;6.28;;;3.95;;
41875;SDS011;27555;50.808;4.402;2023-10-31T02:44:28;8.25;;;4.00;;
41875;SDS011;27555;50.808;4.402;2023-10-31T02:46:54;4.70;;;3.63;;
41875;SDS011;27555;50.808;4.402;2023-10-31T02:49:20;6.25;;;3.60;;
41875;SDS011;27555;50.808;4.402;2023-10-31T02:51:46;11.07;;;3.30;;
41875;SDS011;27555;50.808;4.402;2023-10-31T02:54:11;7.40;;;3.63;;
41875;SDS011;27555;50.808;4.402;2023-10-31T02:56:37;5.35;;;3.50;;
41875;SDS011;27555;50.808;4.402;2023-10-31T02:59:03;4.60;;;3.67;;
41875;SDS011;27555;50.808;4.402;2023-10-31T03:01:28;5.57;;;3.20;;
41875;SDS011;27555;50.808;4.402;2023-10-31T03:03:54;5.25;;;3.00;;
41875;SDS011;27555;50.808;4.402;2023-10-31T03:06:20;7.57;;;3.97;;
41875;SDS011;27555;50.808;4.402;2023-10-31T03:08:46;9.02;;;4.38;;
41875;SDS011;27555;50.808;4.402;2023-10-31T03:11:24;6.00;;;4.38;;
41875;SDS011;27555;50.808;4.402;2023-10-31T03:13:51;6.32;;;3.92;;
41875;SDS011;27555;50.808;4.402;2023-10-31T03:16:21;7.53;;;5.10;;
41875;SDS011;27555;50.808;4.402;2023-10-31T03:18:47;7.65;;;4.65;;
41875;SDS011;27555;50.808;4.402;2023-10-31T03:21:12;7.78;;;4.80;;
41875;SDS011;27555;50.808;4.402;2023-10-31T03:23:39;9.10;;;5.10;;
41875;SDS011;27555;50.808;4.402;2023-10-31T03:26:06;9.48;;;5.05;;
41875;SDS011;27555;50.808;4.402;2023-10-31T03:28:32;5.50;;;4.28;;
41875;SDS011;27555;50.808;4.402;2023-10-31T03:30:57;5.63;;;4.38;;
41875;SDS011;27555;50.808;4.402;2023-10-31T03:33:23;7.38;;;5.10;;
41875;SDS011;27555;50.808;4.402;2023-10-31T03:35:49;12.43;;;5.65;;
41875;SDS011;27555;50.808;4.402;2023-10-31T03:38:14;7.60;;;5.00;;
41875;SDS011;27555;50.808;4.402;2023-10-31T03:40:40;13.07;;;4.57;;
41875;SDS011;27555;50.808;4.402;2023-10-31T03:43:06;7.65;;;5.25;;
41875;SDS011;27555;50.808;4.402;2023-10-31T03:45:32;7.70;;;5.45;;
41875;SDS011;27555;50.808;4.402;2023-10-31T03:47:57;6.75;;;4.90;;
41875;SDS011;27555;50.808;4.402;2023-10-31T03:50:23;8.98;;;5.40;;
41875;SDS011;27555;50.808;4.402;2023-10-31T03:52:49;8.35;;;4.93;;
41875;SDS011;27555;50.808;4.402;2023-10-31T03:55:14;9.77;;;5.35;;
41875;SDS011;27555;50.808;4.402;2023-10-31T03:57:40;8.30;;;5.65;;
41875;SDS011;27555;50.808;4.402;2023-10-31T04:00:06;7.28;;;5.53;;
41875;SDS011;27555;50.808;4.402;2023-10-31T04:02:32;7.90;;;6.00;;
41875;SDS011;27555;50.808;4.402;2023-10-31T04:04:58;8.43;;;6.10;;
41875;SDS011;27555;50.808;4.402;2023-10-31T04:07:24;10.70;;;6.88;;
41875;SDS011;27555;50.808;4.402;2023-10-31T04:09:49;8.70;;;6.25;;
41875;SDS011;27555;50.808;4.402;2023-10-31T04:12:15;10.27;;;6.75;;
41875;SDS011;27555;50.808;4.402;2023-10-31T04:14:41;10.48;;;6.78;;
41875;SDS011;27555;50.808;4.402;2023-10-31T04:17:07;8.30;;;5.75;;
41875;SDS011;27555;50.808;4.402;2023-10-31T04:19:32;9.50;;;6.38;;
41875;SDS011;27555;50.808;4.402;2023-10-31T04:21:58;8.07;;;6.28;;
41875;SDS011;27555;50.808;4.402;2023-10-31T04:24:23;10.07;;;6.60;;
41875;SDS011;27555;50.808;4.402;2023-10-31T04:26:49;8.23;;;6.25;;
41875;SDS011;27555;50.808;4.402;2023-10-31T04:29:15;12.93;;;6.75;;
41875;SDS011;27555;50.808;4.402;2023-10-31T04:31:40;9.30;;;6.07;;
41875;SDS011;27555;50.808;4.402;2023-10-31T04:34:06;9.02;;;6.28;;
41875;SDS011;27555;50.808;4.402;2023-10-31T04:36:32;10.43;;;5.97;;
41875;SDS011;27555;50.808;4.402;2023-10-31T04:38:57;10.13;;;6.47;;
41875;SDS011;27555;50.808;4.402;2023-10-31T04:41:23;9.35;;;6.65;;
41875;SDS011;27555;50.808;4.402;2023-10-31T04:43:48;12.23;;;7.47;;
41875;SDS011;27555;50.808;4.402;2023-10-31T04:46:14;12.02;;;6.82;;
41875;SDS011;27555;50.808;4.402;2023-10-31T04:48:39;13.68;;;7.72;;
41875;SDS011;27555;50.808;4.402;2023-10-31T04:51:05;11.25;;;7.15;;
41875;SDS011;27555;50.808;4.402;2023-10-31T04:53:31;10.52;;;7.43;;
41875;SDS011;27555;50.808;4.402;2023-10-31T04:55:58;14.10;;;7.80;;
41875;SDS011;27555;50.808;4.402;2023-10-31T04:58:24;10.43;;;7.07;;
41875;SDS011;27555;50.808;4.402;2023-10-31T05:00:50;12.90;;;7.60;;
41875;SDS011;27555;50.808;4.402;2023-10-31T05:03:15;11.27;;;6.70;;
41875;SDS011;27555;50.808;4.402;2023-10-31T05:05:41;12.38;;;6.97;;
41875;SDS011;27555;50.808;4.402;2023-10-31T05:08:06;16.33;;;7.45;;
41875;SDS011;27555;50.808;4.402;2023-10-31T05:10:32;12.68;;;7.68;;
41875;SDS011;27555;50.808;4.402;2023-10-31T05:12:58;13.25;;;7.32;;
41875;SDS011;27555;50.808;4.402;2023-10-31T05:15:27;13.38;;;6.95;;
41875;SDS011;27555;50.808;4.402;2023-10-31T05:17:53;11.30;;;7.00;;
41875;SDS011;27555;50.808;4.402;2023-10-31T05:20:18;11.45;;;7.43;;
41875;SDS011;27555;50.808;4.402;2023-10-31T05:22:45;10.07;;;7.45;;
41875;SDS011;27555;50.808;4.402;2023-10-31T05:25:10;12.20;;;7.03;;
41875;SDS011;27555;50.808;4.402;2023-10-31T05:27:36;10.50;;;7.03;;
41875;SDS011;27555;50.808;4.402;2023-10-31T05:30:02;13.35;;;7.68;;
41875;SDS011;27555;50.808;4.402;2023-10-31T05:32:28;14.52;;;7.32;;
41875;SDS011;27555;50.808;4.402;2023-10-31T05:34:53;11.48;;;7.07;;
41875;SDS011;27555;50.808;4.402;2023-10-31T05:37:19;10.40;;;6.80;;
41875;SDS011;27555;50.808;4.402;2023-10-31T05:39:44;9.02;;;7.25;;
41875;SDS011;27555;50.808;4.402;2023-10-31T05:42:10;15.95;;;8.13;;
41875;SDS011;27555;50.808;4.402;2023-10-31T05:44:36;15.35;;;7.13;;
41875;SDS011;27555;50.808;4.402;2023-10-31T05:47:01;12.00;;;7.53;;
41875;SDS011;27555;50.808;4.402;2023-10-31T05:49:27;10.57;;;6.88;;
41875;SDS011;27555;50.808;4.402;2023-10-31T05:51:53;11.48;;;7.05;;
41875;SDS011;27555;50.808;4.402;2023-10-31T05:54:18;12.27;;;6.93;;
41875;SDS011;27555;50.808;4.402;2023-10-31T05:56:44;8.90;;;7.00;;
41875;SDS011;27555;50.808;4.402;2023-10-31T05:59:10;17.38;;;7.95;;
41875;SDS011;27555;50.808;4.402;2023-10-31T06:01:36;11.45;;;7.80;;
41875;SDS011;27555;50.808;4.402;2023-10-31T06:04:02;12.57;;;6.60;;
41875;SDS011;27555;50.808;4.402;2023-10-31T06:06:30;12.85;;;6.72;;
41875;SDS011;27555;50.808;4.402;2023-10-31T06:09:02;9.05;;;6.60;;
41875;SDS011;27555;50.808;4.402;2023-10-31T06:11:28;16.52;;;6.63;;
41875;SDS011;27555;50.808;4.402;2023-10-31T06:13:54;9.63;;;5.80;;
41875;SDS011;27555;50.808;4.402;2023-10-31T06:16:19;9.32;;;6.65;;
41875;SDS011;27555;50.808;4.402;2023-10-31T06:18:46;9.88;;;5.70;;
41875;SDS011;27555;50.808;4.402;2023-10-31T06:21:11;9.25;;;5.90;;
41875;SDS011;27555;50.808;4.402;2023-10-31T06:23:37;7.30;;;5.30;;
41875;SDS011;27555;50.808;4.402;2023-10-31T06:26:03;8.70;;;5.10;;
41875;SDS011;27555;50.808;4.402;2023-10-31T06:28:29;12.13;;;7.13;;
41875;SDS011;27555;50.808;4.402;2023-10-31T06:30:55;8.48;;;6.03;;
41875;SDS011;27555;50.808;4.402;2023-10-31T06:33:20;13.57;;;6.45;;
41875;SDS011;27555;50.808;4.402;2023-10-31T06:35:46;8.15;;;5.93;;
41875;SDS011;27555;50.808;4.402;2023-10-31T06:38:12;9.43;;;6.35;;
41875;SDS011;27555;50.808;4.402;2023-10-31T06:40:38;8.55;;;5.90;;
41875;SDS011;27555;50.808;4.402;2023-10-31T06:43:03;8.07;;;5.40;;
41875;SDS011;27555;50.808;4.402;2023-10-31T06:45:29;8.70;;;5.00;;
41875;SDS011;27555;50.808;4.402;2023-10-31T06:47:54;13.05;;;6.90;;
41875;SDS011;27555;50.808;4.402;2023-10-31T06:50:20;9.57;;;5.47;;
41875;SDS011;27555;50.808;4.402;2023-10-31T06:52:46;6.85;;;5.13;;
41875;SDS011;27555;50.808;4.402;2023-10-31T06:55:11;13.57;;;5.65;;
41875;SDS011;27555;50.808;4.402;2023-10-31T06:57:37;14.20;;;5.25;;
41875;SDS011;27555;50.808;4.402;2023-10-31T07:00:05;7.80;;;5.35;;
41875;SDS011;27555;50.808;4.402;2023-10-31T07:02:34;12.13;;;5.32;;
41875;SDS011;27555;50.808;4.402;2023-10-31T07:05:00;6.43;;;5.00;;
41875;SDS011;27555;50.808;4.402;2023-10-31T07:07:26;6.78;;;4.93;;
41875;SDS011;27555;50.808;4.402;2023-10-31T07:09:51;8.25;;;5.60;;
41875;SDS011;27555;50.808;4.402;2023-10-31T07:12:18;7.90;;;5.22;;
41875;SDS011;27555;50.808;4.402;2023-10-31T07:14:44;8.07;;;5.78;;
41875;SDS011;27555;50.808;4.402;2023-10-31T07:17:11;6.40;;;5.03;;
41875;SDS011;27555;50.808;4.402;2023-10-31T07:19:36;16.77;;;6.05;;
41875;SDS011;27555;50.808;4.402;2023-10-31T07:22:02;7.57;;;4.88;;
41875;SDS011;27555;50.808;4.402;2023-10-31T07:24:28;6.97;;;4.80;;
41875;SDS011;27555;50.808;4.402;2023-10-31T07:26:54;9.65;;;5.10;;
41875;SDS011;27555;50.808;4.402;2023-10-31T07:29:20;10.82;;;4.80;;
41875;SDS011;27555;50.808;4.402;2023-10-31T07:31:45;11.18;;;4.88;;
41875;SDS011;27555;50.808;4.402;2023-10-31T07:34:11;12.55;;;5.35;;
41875;SDS011;27555;50.808;4.402;2023-10-31T07:36:37;10.07;;;5.05;;
41875;SDS011;27555;50.808;4.402;2023-10-31T07:39:04;7.63;;;4.55;;
41875;SDS011;27555;50.808;4.402;2023-10-31T07:41:30;10.35;;;5.00;;
41875;SDS011;27555;50.808;4.402;2023-10-31T07:43:55;10.73;;;5.38;;
41875;SDS011;27555;50.808;4.402;2023-10-31T07:46:21;9.85;;;4.25;;
41875;SDS011;27555;50.808;4.402;2023-10-31T07:48:48;16.02;;;5.07;;
41875;SDS011;27555;50.808;4.402;2023-10-31T07:51:14;6.28;;;4.55;;
41875;SDS011;27555;50.808;4.402;2023-10-31T07:53:41;10.05;;;5.70;;
41875;SDS011;27555;50.808;4.402;2023-10-31T07:56:16;8.13;;;4.68;;
41875;SDS011;27555;50.808;4.402;2023-10-31T07:58:48;9.30;;;3.97;;
41875;SDS011;27555;50.808;4.402;2023-10-31T08:01:14;6.85;;;3.88;;
41875;SDS011;27555;50.808;4.402;2023-10-31T08:03:42;7.13;;;4.13;;
41875;SDS011;27555;50.808;4.402;2023-10-31T08:06:07;7.43;;;3.97;;
41875;SDS011;27555;50.808;4.402;2023-10-31T08:08:33;7.57;;;3.63;;
41875;SDS011;27555;50.808;4.402;2023-10-31T08:10:59;8.18;;;3.60;;
41875;SDS011;27555;50.808;4.402;2023-10-31T08:13:25;6.63;;;3.88;;
41875;SDS011;27555;50.808;4.402;2023-10-31T08:15:50;5.90;;;4.13;;
41875;SDS011;27555;50.808;4.402;2023-10-31T08:18:16;7.30;;;3.80;;
41875;SDS011;27555;50.808;4.402;2023-10-31T08:20:42;6.75;;;3.80;;
41875;SDS011;27555;50.808;4.402;2023-10-31T08:23:11;10.55;;;4.07;;
41875;SDS011;27555;50.808;4.402;2023-10-31T08:25:36;8.55;;;4.68;;
41875;SDS011;27555;50.808;4.402;2023-10-31T08:28:02;6.78;;;3.92;;
41875;SDS011;27555;50.808;4.402;2023-10-31T08:30:28;10.25;;;4.00;;
41875;SDS011;27555;50.808;4.402;2023-10-31T08:32:54;6.97;;;3.72;;
41875;SDS011;27555;50.808;4.402;2023-10-31T08:35:19;11.27;;;4.07;;
41875;SDS011;27555;50.808;4.402;2023-10-31T08:37:45;12.88;;;4.13;;
41875;SDS011;27555;50.808;4.402;2023-10-31T08:40:12;11.15;;;3.85;;
41875;SDS011;27555;50.808;4.402;2023-10-31T08:42:37;5.30;;;2.80;;
41875;SDS011;27555;50.808;4.402;2023-10-31T08:45:03;7.25;;;3.20;;
41875;SDS011;27555;50.808;4.402;2023-10-31T08:47:30;6.68;;;3.05;;
41875;SDS011;27555;50.808;4.402;2023-10-31T08:49:57;7.88;;;2.72;;
41875;SDS011;27555;50.808;4.402;2023-10-31T08:52:23;16.52;;;3.53;;
41875;SDS011;27555;50.808;4.402;2023-10-31T08:54:49;11.75;;;3.05;;
41875;SDS011;27555;50.808;4.402;2023-10-31T08:57:14;8.50;;;3.22;;
41875;SDS011;27555;50.808;4.402;2023-10-31T08:59:40;10.70;;;3.72;;
41875;SDS011;27555;50.808;4.402;2023-10-31T09:02:05;6.10;;;2.92;;
41875;SDS011;27555;50.808;4.402;2023-10-31T09:04:31;7.60;;;2.53;;
41875;SDS011;27555;50.808;4.402;2023-10-31T09:06:56;8.57;;;3.03;;
41875;SDS011;27555;50.808;4.402;2023-10-31T09:09:22;8.50;;;2.88;;
41875;SDS011;27555;50.808;4.402;2023-10-31T09:11:48;7.82;;;2.38;;
41875;SDS011;27555;50.808;4.402;2023-10-31T09:14:14;6.55;;;2.47;;
41875;SDS011;27555;50.808;4.402;2023-10-31T09:16:40;5.88;;;2.40;;
41875;SDS011;27555;50.808;4.402;2023-10-31T09:19:06;7.47;;;2.42;;
41875;SDS011;27555;50.808;4.402;2023-10-31T09:21:31;5.53;;;2.35;;
41875;SDS011;27555;50.808;4.402;2023-10-31T09:23:58;7.43;;;2.67;;
41875;SDS011;27555;50.808;4.402;2023-10-31T09:26:23;9.38;;;2.90;;
41875;SDS011;27555;50.808;4.402;2023-10-31T09:28:49;12.48;;;2.47;;
41875;SDS011;27555;50.808;4.402;2023-10-31T09:31:18;10.65;;;4.00;;
41875;SDS011;27555;50.808;4.402;2023-10-31T09:33:44;10.57;;;3.67;;
41875;SDS011;27555;50.808;4.402;2023-10-31T09:36:10;7.75;;;2.65;;
41875;SDS011;27555;50.808;4.402;2023-10-31T09:38:37;9.90;;;3.40;;
41875;SDS011;27555;50.808;4.402;2023-10-31T09:41:03;10.38;;;3.22;;
41875;SDS011;27555;50.808;4.402;2023-10-31T09:43:29;11.55;;;3.65;;
41875;SDS011;27555;50.808;4.402;2023-10-31T09:45:55;12.82;;;3.83;;
41875;SDS011;27555;50.808;4.402;2023-10-31T09:48:22;12.68;;;4.25;;
41875;SDS011;27555;50.808;4.402;2023-10-31T09:50:48;9.60;;;4.03;;
41875;SDS011;27555;50.808;4.402;2023-10-31T09:53:15;16.88;;;6.43;;
41875;SDS011;27555;50.808;4.402;2023-10-31T09:55:43;8.32;;;4.13;;
41875;SDS011;27555;50.808;4.402;2023-10-31T09:58:10;13.18;;;4.63;;
41875;SDS011;27555;50.808;4.402;2023-10-31T10:00:36;11.50;;;4.95;;
41875;SDS011;27555;50.808;4.402;2023-10-31T10:03:03;9.80;;;3.85;;
41875;SDS011;27555;50.808;4.402;2023-10-31T10:05:30;13.23;;;4.40;;
41875;SDS011;27555;50.808;4.402;2023-10-31T10:07:57;11.63;;;4.30;;
41875;SDS011;27555;50.808;4.402;2023-10-31T10:10:23;13.48;;;5.25;;
41875;SDS011;27555;50.808;4.402;2023-10-31T10:12:51;7.72;;;4.53;;
41875;SDS011;27555;50.808;4.402;2023-10-31T10:15:17;10.85;;;4.85;;
41875;SDS011;27555;50.808;4.402;2023-10-31T10:17:48;8.77;;;3.63;;
41875;SDS011;27555;50.808;4.402;2023-10-31T10:20:15;10.57;;;4.50;;
41875;SDS011;27555;50.808;4.402;2023-10-31T10:22:41;19.30;;;4.82;;
41875;SDS011;27555;50.808;4.402;2023-10-31T10:25:08;11.00;;;4.45;;
41875;SDS011;27555;50.808;4.402;2023-10-31T10:27:36;22.80;;;5.93;;
41875;SDS011;27555;50.808;4.402;2023-10-31T10:30:03;11.73;;;4.93;;
41875;SDS011;27555;50.808;4.402;2023-10-31T10:32:29;14.65;;;5.95;;
41875;SDS011;27555;50.808;4.402;2023-10-31T10:34:55;15.27;;;4.72;;
41875;SDS011;27555;50.808;4.402;2023-10-31T10:37:20;12.80;;;4.93;;
41875;SDS011;27555;50.808;4.402;2023-10-31T10:39:48;20.92;;;6.03;;
41875;SDS011;27555;50.808;4.402;2023-10-31T10:42:21;11.35;;;5.32;;
41875;SDS011;27555;50.808;4.402;2023-10-31T10:44:57;15.23;;;5.38;;
41875;SDS011;27555;50.808;4.402;2023-10-31T10:47:27;13.63;;;6.00;;
41875;SDS011;27555;50.808;4.402;2023-10-31T10:49:54;17.05;;;5.88;;
41875;SDS011;27555;50.808;4.402;2023-10-31T10:52:23;16.67;;;5.53;;
41875;SDS011;27555;50.808;4.402;2023-10-31T10:54:58;13.88;;;6.85;;
41875;SDS011;27555;50.808;4.402;2023-10-31T10:57:37;15.30;;;7.37;;
41875;SDS011;27555;50.808;4.402;2023-10-31T11:00:12;18.83;;;7.32;;
41875;SDS011;27555;50.808;4.402;2023-10-31T11:02:41;14.43;;;7.68;;
41875;SDS011;27555;50.808;4.402;2023-10-31T11:05:08;13.80;;;7.72;;
41875;SDS011;27555;50.808;4.402;2023-10-31T11:07:37;18.38;;;7.78;;
41875;SDS011;27555;50.808;4.402;2023-10-31T11:10:04;12.65;;;7.40;;
41875;SDS011;27555;50.808;4.402;2023-10-31T11:12:31;19.60;;;7.93;;
41875;SDS011;27555;50.808;4.402;2023-10-31T11:14:58;11.80;;;6.65;;
41875;SDS011;27555;50.808;4.402;2023-10-31T11:17:26;13.55;;;6.20;;
41875;SDS011;27555;50.808;4.402;2023-10-31T11:19:55;14.75;;;7.25;;
41875;SDS011;27555;50.808;4.402;2023-10-31T11:22:21;15.48;;;6.38;;
41875;SDS011;27555;50.808;4.402;2023-10-31T11:24:48;23.70;;;11.52;;
41875;SDS011;27555;50.808;4.402;2023-10-31T11:27:14;16.67;;;6.43;;
41875;SDS011;27555;50.808;4.402;2023-10-31T11:29:42;14.55;;;5.30;;
41875;SDS011;27555;50.808;4.402;2023-10-31T11:32:08;15.65;;;6.45;;
41875;SDS011;27555;50.808;4.402;2023-10-31T11:34:39;10.80;;;5.43;;
41875;SDS011;27555;50.808;4.402;2023-10-31T11:37:25;12.05;;;5.70;;
41875;SDS011;27555;50.808;4.402;2023-10-31T11:42:43;12.30;;;5.28;;
41875;SDS011;27555;50.808;4.402;2023-10-31T11:45:11;13.75;;;4.57;;
41875;SDS011;27555;50.808;4.402;2023-10-31T11:47:47;10.40;;;5.13;;
41875;SDS011;27555;50.808;4.402;2023-10-31T11:50:13;15.50;;;5.00;;
41875;SDS011;27555;50.808;4.402;2023-10-31T11:52:39;9.75;;;4.97;;
41875;SDS011;27555;50.808;4.402;2023-10-31T11:55:08;14.75;;;4.88;;
41875;SDS011;27555;50.808;4.402;2023-10-31T11:57:35;12.48;;;5.10;;
41875;SDS011;27555;50.808;4.402;2023-10-31T12:00:01;16.10;;;4.40;;
41875;SDS011;27555;50.808;4.402;2023-10-31T12:02:28;6.90;;;3.25;;
41875;SDS011;27555;50.808;4.402;2023-10-31T12:05:10;13.55;;;4.15;;
41875;SDS011;27555;50.808;4.402;2023-10-31T12:07:43;6.90;;;3.65;;
41875;SDS011;27555;50.808;4.402;2023-10-31T12:10:11;9.75;;;3.67;;
41875;SDS011;27555;50.808;4.402;2023-10-31T12:12:38;7.32;;;3.25;;
41875;SDS011;27555;50.808;4.402;2023-10-31T12:15:07;9.50;;;3.78;;
41875;SDS011;27555;50.808;4.402;2023-10-31T12:17:36;9.80;;;3.63;;
41875;SDS011;27555;50.808;4.402;2023-10-31T12:20:05;6.90;;;3.65;;
41875;SDS011;27555;50.808;4.402;2023-10-31T12:22:32;9.50;;;3.83;;
41875;SDS011;27555;50.808;4.402;2023-10-31T12:25:02;6.00;;;3.15;;
41875;SDS011;27555;50.808;4.402;2023-10-31T12:27:41;11.57;;;3.60;;
41875;SDS011;27555;50.808;4.402;2023-10-31T12:30:11;8.63;;;3.72;;
41875;SDS011;27555;50.808;4.402;2023-10-31T12:32:39;6.65;;;3.00;;
41875;SDS011;27555;50.808;4.402;2023-10-31T12:35:05;10.00;;;3.17;;
41875;SDS011;27555;50.808;4.402;2023-10-31T12:37:31;5.97;;;3.33;;
41875;SDS011;27555;50.808;4.402;2023-10-31T12:39:58;6.00;;;2.60;;
41875;SDS011;27555;50.808;4.402;2023-10-31T12:42:28;9.63;;;2.83;;
41875;SDS011;27555;50.808;4.402;2023-10-31T12:44:56;4.63;;;2.05;;
41875;SDS011;27555;50.808;4.402;2023-10-31T12:47:24;6.82;;;3.42;;
41875;SDS011;27555;50.808;4.402;2023-10-31T12:50:35;6.07;;;2.03;;
41875;SDS011;27555;50.808;4.402;2023-10-31T12:52:49;2.90;;;1.73;;
41875;SDS011;27555;50.808;4.402;2023-10-31T12:55:19;3.30;;;1.90;;
41875;SDS011;27555;50.808;4.402;2023-10-31T12:57:46;3.88;;;2.25;;
41875;SDS011;27555;50.808;4.402;2023-10-31T13:00:15;5.20;;;2.17;;
41875;SDS011;27555;50.808;4.402;2023-10-31T13:02:49;3.58;;;2.05;;
41875;SDS011;27555;50.808;4.402;2023-10-31T13:05:15;2.67;;;1.42;;
41875;SDS011;27555;50.808;4.402;2023-10-31T13:07:50;7.15;;;2.22;;
41875;SDS011;27555;50.808;4.402;2023-10-31T13:10:17;4.28;;;2.47;;
41875;SDS011;27555;50.808;4.402;2023-10-31T13:12:46;4.43;;;2.05;;
41875;SDS011;27555;50.808;4.402;2023-10-31T13:15:13;3.38;;;2.00;;
41875;SDS011;27555;50.808;4.402;2023-10-31T13:17:39;6.47;;;2.22;;
41875;SDS011;27555;50.808;4.402;2023-10-31T13:20:08;7.40;;;2.42;;
41875;SDS011;27555;50.808;4.402;2023-10-31T13:22:35;27.02;;;3.45;;
41875;SDS011;27555;50.808;4.402;2023-10-31T13:25:04;3.55;;;2.38;;
41875;SDS011;27555;50.808;4.402;2023-10-31T13:27:32;3.30;;;2.25;;
41875;SDS011;27555;50.808;4.402;2023-10-31T13:30:00;8.15;;;3.03;;
41875;SDS011;27555;50.808;4.402;2023-10-31T13:32:29;6.55;;;3.00;;
41875;SDS011;27555;50.808;4.402;2023-10-31T13:34:54;6.18;;;3.30;;
41875;SDS011;27555;50.808;4.402;2023-10-31T13:37:20;8.52;;;3.22;;
41875;SDS011;27555;50.808;4.402;2023-10-31T13:39:46;9.55;;;3.67;;
41875;SDS011;27555;50.808;4.402;2023-10-31T13:42:12;8.82;;;4.93;;
41875;SDS011;27555;50.808;4.402;2023-10-31T13:44:39;8.75;;;5.43;;
41875;SDS011;27555;50.808;4.402;2023-10-31T13:47:05;14.77;;;6.40;;
41875;SDS011;27555;50.808;4.402;2023-10-31T13:49:31;12.27;;;5.47;;
41875;SDS011;27555;50.808;4.402;2023-10-31T13:51:57;12.27;;;6.22;;
41875;SDS011;27555;50.808;4.402;2023-10-31T13:54:22;13.40;;;7.10;;
41875;SDS011;27555;50.808;4.402;2023-10-31T13:56:48;11.05;;;6.28;;
41875;SDS011;27555;50.808;4.402;2023-10-31T13:59:14;10.15;;;5.68;;
41875;SDS011;27555;50.808;4.402;2023-10-31T14:01:40;10.02;;;5.82;;
41875;SDS011;27555;50.808;4.402;2023-10-31T14:04:09;12.52;;;6.07;;
41875;SDS011;27555;50.808;4.402;2023-10-31T14:06:35;7.40;;;4.57;;
41875;SDS011;27555;50.808;4.402;2023-10-31T14:09:02;8.95;;;4.57;;
41875;SDS011;27555;50.808;4.402;2023-10-31T14:11:32;7.43;;;4.15;;
41875;SDS011;27555;50.808;4.402;2023-10-31T14:13:58;6.20;;;3.97;;
41875;SDS011;27555;50.808;4.402;2023-10-31T14:16:28;7.63;;;3.77;;
41875;SDS011;27555;50.808;4.402;2023-10-31T14:18:57;7.57;;;3.58;;
41875;SDS011;27555;50.808;4.402;2023-10-31T14:21:23;8.57;;;3.72;;
41875;SDS011;27555;50.808;4.402;2023-10-31T14:23:50;8.27;;;3.78;;
41875;SDS011;27555;50.808;4.402;2023-10-31T14:26:19;10.45;;;4.45;;
41875;SDS011;27555;50.808;4.402;2023-10-31T14:28:46;8.93;;;3.58;;
41875;SDS011;27555;50.808;4.402;2023-10-31T14:31:12;15.07;;;3.63;;
41875;SDS011;27555;50.808;4.402;2023-10-31T14:33:38;10.80;;;3.95;;
41875;SDS011;27555;50.808;4.402;2023-10-31T14:36:03;8.20;;;3.97;;
41875;SDS011;27555;50.808;4.402;2023-10-31T14:38:29;12.13;;;3.53;;
41875;SDS011;27555;50.808;4.402;2023-10-31T14:40:55;13.07;;;4.53;;